createdAt,value
2019-05-01T00:09:29.647Z,11.15
2019-05-01T00:24:36.853Z,9.80
2019-05-01T00:39:45.201Z,8.20
2019-05-01T00:54:56.335Z,9.38
2019-05-01T01:10:03.552Z,8.85
2019-05-01T01:25:11.877Z,7.83
2019-05-01T01:40:19.871Z,10.28
2019-05-01T01:55:44.667Z,9.60
2019-05-01T02:10:52.385Z,21.57
2019-05-01T02:26:00.147Z,8.05
2019-05-01T02:41:10.153Z,24.40
2019-05-01T03:11:55.359Z,20.92
2019-05-01T03:27:02.474Z,20.55
2019-05-01T03:42:09.679Z,24.87
2019-05-01T03:57:17.459Z,16.07
2019-05-01T04:12:25.440Z,40.15
2019-05-01T04:27:34.409Z,16.50
2019-05-01T04:42:41.761Z,15.13
2019-05-01T05:12:58.691Z,21.60
2019-05-01T05:28:06.980Z,20.00
2019-05-01T05:43:14.307Z,16.75
2019-05-01T06:13:48.125Z,39.15
2019-05-01T06:29:00.272Z,37.85
2019-05-01T06:44:19.642Z,32.10
2019-05-01T06:59:31.554Z,28.73
2019-05-01T07:14:37.759Z,26.55
2019-05-01T07:29:46.795Z,26.57
2019-05-01T07:44:59.428Z,23.95
2019-05-01T08:00:11.736Z,22.25
2019-05-01T08:15:22.463Z,19.75
2019-05-01T08:30:48.065Z,18.67
2019-05-01T08:46:02.402Z,16.50
2019-05-01T09:01:10.738Z,15.28
2019-05-01T09:16:19.294Z,13.30
2019-05-01T09:31:28.670Z,12.28
2019-05-01T09:46:36.016Z,14.40
2019-05-01T10:01:43.309Z,15.18
2019-05-01T10:16:53.609Z,12.37
2019-05-01T10:32:11.433Z,10.48
2019-05-01T10:47:18.368Z,11.95
2019-05-01T11:02:25.529Z,11.20
2019-05-01T11:17:32.391Z,8.45
2019-05-01T11:32:49.840Z,6.00
2019-05-01T11:47:56.876Z,12.60
2019-05-01T12:03:04.172Z,7.85
2019-05-01T12:18:12.284Z,6.67
2019-05-01T12:33:27.414Z,7.95
2019-05-01T12:48:34.374Z,4.90
2019-05-01T13:03:41.225Z,8.68
2019-05-01T13:18:48.128Z,7.47
2019-05-01T13:33:55.218Z,10.08
2019-05-01T13:49:02.035Z,5.35
2019-05-01T14:04:11.969Z,6.95
2019-05-01T14:19:18.835Z,5.80
2019-05-01T14:34:25.898Z,6.85
2019-05-01T14:49:33.559Z,5.50
2019-05-01T15:04:40.653Z,16.55
2019-05-01T15:19:49.902Z,6.03
2019-05-01T15:34:57.034Z,6.33
2019-05-01T15:50:05.228Z,9.45
2019-05-01T16:05:12.228Z,10.48
2019-05-01T16:20:19.277Z,9.78
2019-05-01T16:35:27.490Z,8.60
2019-05-01T16:50:34.591Z,11.95
2019-05-01T17:05:43.513Z,10.50
2019-05-01T17:20:52.571Z,10.40
2019-05-01T17:35:59.347Z,12.25
2019-05-01T17:51:06.542Z,13.22
2019-05-01T18:06:15.285Z,13.50
2019-05-01T18:21:23.999Z,14.65
2019-05-01T18:36:44.766Z,44.53
2019-05-01T18:51:51.665Z,15.60
2019-05-01T19:07:00.198Z,14.53
2019-05-01T19:37:16.323Z,27.37
2019-05-01T19:52:25.049Z,34.27
2019-05-01T20:07:32.477Z,32.53
2019-05-01T20:22:39.470Z,45.47
2019-05-01T20:37:46.810Z,33.30
2019-05-01T20:52:54.295Z,34.33
2019-05-01T21:08:10.671Z,36.43
2019-05-01T21:23:18.419Z,47.95
2019-05-01T21:38:25.484Z,29.07
2019-05-01T21:53:32.856Z,27.77
2019-05-01T22:08:41.070Z,22.48
2019-05-01T22:24:06.516Z,25.25
2019-05-01T22:39:15.056Z,22.25
2019-05-01T22:54:23.089Z,22.13
2019-05-01T23:09:31.475Z,21.30
2019-05-01T23:24:38.531Z,15.60
2019-05-01T23:39:45.621Z,16.87
2019-05-01T23:54:52.693Z,17.45
